首页
METAR-TAF:

METAR-TAF

机场 :

Ivujivik, 魁北克, 加拿大

纬度: 62-25N, 经度: 077-57W, 海拔: 42米

当前天气观测

该预报发布于4小时和18分钟前的19:00 UTC
风速11节,风向南转西南
温度 -14°C
湿度 78%
气压 1008 hPa
能見度: 24.1公里
少量云层高于500英尺
散云层高于1000英尺
散云层高于18000英尺
多云层高于19000英尺

METAR: CYIK 261900Z 21011KT 15SM FEW005 SCT010 SCT180 BKN190 M14/M17 A2976 RMK ST2ST1AS1CS1 SN CVR TR LOOSE LAST STFD OBS/NEXT 271200UTC SLP083

时间: 19:18 (23:18 UTC)

预报

该预报发布于9小时和40分钟前的13:38 UTC
预报有效从26日的 14点(UTC)到 26日的 21点(UTC)
风速3节,风向多变
能見度: 10公里
散云层高于1500英尺
多云层高于3000英尺
短暂存在
从 26日的 14点(UTC)到 26日的 18点(UTC)
能見度: 3.2公里
多云层高于1200英尺
阴天层高于2500英尺
小雪, 轻雾
从 26日的 1800点(UTC)
风速12节,风向
能見度: 10公里
散云层高于2500英尺

TAF: CYIK 261338Z 2614/2621 VRB03KT P6SM SCT015 BKN030 TEMPO 2614/2618 2SM -SN BR BKN012 OVC025 FM261800 18012KT P6SM SCT025 RMK NXT FCST WILL BE ISSUED AT 271345Z

超过4000个机场的气象观测和天气预报(METAR&TAF报告)。

可查询的气象台以黄色和红色小点在地图上表示。

将鼠标移到小点上方,可查看气象台名称。

然后点击查看天气观测和预报。

如需切换地图:点击带黑十字的绿色按钮放大地图;点击带横线的绿色按钮缩小地图;或者点击绿色箭头查看邻近地区的地图。


METAR-TAF: